Terminal Aerodrome Forecast
Issued by NWS Twin Cities, MN

Home | Current Version | Previous Version | Graphics & Text | Print | Product List | Glossary On
Versions: 1 2 3 4 5 6 7 8 9 10 11 12 13 14 15 16 17 18 19
000
FTUS43 KMPX 161700 CCA
TAFEAU
TAF COR
KEAU 161749Z 1618/1718 27008KT P6SM FEW050
     FM170000 21003KT P6SM SKC
     FM171100 00000KT P6SM SKC
      TEMPO 1711/1713 1 1/2SM BR SKC
     FM171400 24004KT P6SM FEW200=

USA.gov is the U.S. government's official web portal to all federal, state and local government web resources and services.